createdAt,value
2023-03-22T00:01:24.801Z,97799.75
2023-03-22T00:03:56.705Z,97796.94
2023-03-22T00:06:24.169Z,97798.34
2023-03-22T00:08:52.065Z,97801.34
2023-03-22T00:11:22.136Z,97803.94
2023-03-22T00:13:52.642Z,97806.06
2023-03-22T00:16:20.441Z,97795.16
2023-03-22T00:18:47.215Z,97795.88
2023-03-22T00:21:15.480Z,97794.31
2023-03-22T00:23:42.657Z,97803.38
2023-03-22T00:26:14.320Z,97797.44
2023-03-22T00:28:41.646Z,97802.69
2023-03-22T00:31:09.333Z,97806.44
2023-03-22T00:33:38.753Z,97805.94
2023-03-22T00:36:07.797Z,97804.22
2023-03-22T00:38:44.952Z,97792.19
2023-03-22T00:41:31.416Z,97800.97
2023-03-22T00:43:58.038Z,97797.00
2023-03-22T00:46:24.588Z,97798.38
2023-03-22T00:48:51.140Z,97792.94
2023-03-22T00:51:18.204Z,97791.28
2023-03-22T00:53:44.779Z,97793.47
2023-03-22T00:56:18.173Z,97792.56
2023-03-22T00:58:47.372Z,97782.91
2023-03-22T01:01:14.852Z,97782.06
2023-03-22T01:03:43.112Z,97769.66
2023-03-22T01:06:10.529Z,97772.97
2023-03-22T01:08:39.235Z,97762.81
2023-03-22T01:11:09.203Z,97756.94
2023-03-22T01:13:41.709Z,97758.84
2023-03-22T01:16:09.475Z,97756.50
2023-03-22T01:18:45.507Z,97744.91
2023-03-22T01:21:12.948Z,97741.34
2023-03-22T01:23:39.618Z,97737.44
2023-03-22T01:26:08.615Z,97739.28
2023-03-22T01:28:35.259Z,97736.16
2023-03-22T01:31:02.591Z,97743.00
2023-03-22T01:33:29.487Z,97740.31
2023-03-22T01:35:59.594Z,97732.25
2023-03-22T01:38:26.322Z,97740.56
2023-03-22T01:40:54.757Z,97738.84
2023-03-22T01:43:21.608Z,97740.31
2023-03-22T01:45:50.345Z,97745.16
2023-03-22T01:48:47.810Z,97741.59
2023-03-22T01:51:22.574Z,97735.47
2023-03-22T01:54:03.282Z,97740.50
2023-03-22T01:56:34.367Z,97743.19
2023-03-22T01:59:01.770Z,97737.81
2023-03-22T02:01:35.140Z,97741.84
2023-03-22T02:04:07.308Z,97738.75
2023-03-22T02:06:38.424Z,97733.81
2023-03-22T02:09:07.927Z,97726.19
2023-03-22T02:11:39.094Z,97729.41
2023-03-22T02:14:16.402Z,97729.47
2023-03-22T02:17:08.535Z,97720.88
2023-03-22T02:19:44.154Z,97728.44
2023-03-22T02:22:48.263Z,97720.66
2023-03-22T02:25:47.440Z,97723.59
2023-03-22T02:28:38.124Z,97712.66
2023-03-22T02:31:26.365Z,97714.91
2023-03-22T02:34:14.615Z,97715.06
2023-03-22T02:36:56.566Z,97716.13
2023-03-22T02:39:56.982Z,97714.47
2023-03-22T02:42:41.273Z,97704.75
2023-03-22T02:45:33.850Z,97706.91
2023-03-22T02:48:28.468Z,97705.59
2023-03-22T02:51:00.700Z,97698.31
2023-03-22T02:53:40.889Z,97697.91
2023-03-22T02:57:02.661Z,97701.97
2023-03-22T02:59:33.587Z,97704.97
2023-03-22T03:02:03.774Z,97698.06
2023-03-22T03:04:38.141Z,97699.88
2023-03-22T03:07:09.433Z,97694.41
2023-03-22T03:09:41.458Z,97698.09
2023-03-22T03:12:19.707Z,97694.91
2023-03-22T03:14:48.385Z,97686.59
2023-03-22T03:17:21.200Z,97688.84
2023-03-22T03:20:10.538Z,97691.78
2023-03-22T03:22:37.288Z,97681.06
2023-03-22T03:25:18.522Z,97687.97
2023-03-22T03:27:59.372Z,97679.56
2023-03-22T03:30:34.484Z,97680.56
2023-03-22T03:33:09.299Z,97685.22
2023-03-22T03:35:43.796Z,97689.22
2023-03-22T03:38:15.712Z,97686.19
2023-03-22T03:40:49.448Z,97692.00
2023-03-22T03:43:19.340Z,97692.44
2023-03-22T03:45:46.120Z,97692.34
2023-03-22T03:48:21.876Z,97694.84
2023-03-22T03:50:51.935Z,97684.69
2023-03-22T03:53:18.838Z,97691.88
2023-03-22T03:55:47.137Z,97697.16
2023-03-22T03:58:21.595Z,97701.09
2023-03-22T04:00:51.512Z,97700.22
2023-03-22T04:03:18.308Z,97700.09
2023-03-22T04:05:45.940Z,97694.66
2023-03-22T04:08:14.313Z,97704.16
2023-03-22T04:10:41.143Z,97696.69
2023-03-22T04:13:07.948Z,97701.72
2023-03-22T04:15:38.916Z,97701.53
2023-03-22T04:18:05.421Z,97704.47
2023-03-22T04:20:31.914Z,97702.34
2023-03-22T04:22:58.896Z,97701.47
2023-03-22T04:25:30.499Z,97699.00
2023-03-22T04:28:02.376Z,97698.91
2023-03-22T04:30:30.817Z,97703.81
2023-03-22T04:32:57.283Z,97697.56
2023-03-22T04:35:25.509Z,97699.69
2023-03-22T04:37:53.832Z,97701.69
2023-03-22T04:40:20.838Z,97701.69
2023-03-22T04:42:47.562Z,97703.25
2023-03-22T04:45:14.467Z,97697.53
2023-03-22T04:47:41.146Z,97695.88
2023-03-22T04:50:10.273Z,97698.44
2023-03-22T04:52:36.753Z,97697.91
2023-03-22T04:55:03.398Z,97692.09
2023-03-22T04:57:31.746Z,97695.91
2023-03-22T04:59:58.275Z,97691.00
2023-03-22T05:02:25.012Z,97694.22
2023-03-22T05:04:51.760Z,97686.19
2023-03-22T05:07:18.274Z,97683.16
2023-03-22T05:09:44.717Z,97685.94
2023-03-22T05:12:18.105Z,97686.59
2023-03-22T05:14:44.616Z,97691.72
2023-03-22T05:17:11.232Z,97687.50
2023-03-22T05:19:37.826Z,97687.59
2023-03-22T05:22:04.383Z,97683.44
2023-03-22T05:24:34.654Z,97689.16
2023-03-22T05:27:03.418Z,97688.03
2023-03-22T05:29:37.113Z,97688.47
2023-03-22T05:32:04.380Z,97686.59
2023-03-22T05:34:35.836Z,97687.78
2023-03-22T05:37:03.400Z,97686.88
2023-03-22T05:39:32.331Z,97692.44
2023-03-22T05:41:58.833Z,97691.97
2023-03-22T05:44:25.401Z,97692.16
2023-03-22T05:46:52.020Z,97693.06
2023-03-22T05:49:19.141Z,97692.97
2023-03-22T05:51:47.953Z,97685.41
2023-03-22T05:54:16.209Z,97688.50
2023-03-22T05:56:44.191Z,97695.69
2023-03-22T05:59:10.968Z,97697.75
2023-03-22T06:01:37.677Z,97695.44
2023-03-22T06:04:04.477Z,97701.63
2023-03-22T06:06:31.002Z,97693.41
2023-03-22T06:09:07.306Z,97709.47
2023-03-22T06:11:42.376Z,97704.78
2023-03-22T06:14:09.106Z,97706.31
2023-03-22T06:16:35.951Z,97701.63
2023-03-22T06:19:02.794Z,97702.09
2023-03-22T06:21:31.149Z,97701.50
2023-03-22T06:23:57.857Z,97700.72
2023-03-22T06:26:24.377Z,97692.44
2023-03-22T06:29:03.709Z,97685.69
2023-03-22T06:31:31.039Z,97692.19
2023-03-22T06:34:00.849Z,97694.94
2023-03-22T06:36:29.652Z,97691.66
2023-03-22T06:38:57.217Z,97687.97
2023-03-22T06:41:26.023Z,97686.44
2023-03-22T06:43:54.899Z,97697.81
2023-03-22T06:46:21.444Z,97688.53
2023-03-22T06:48:47.968Z,97697.53
2023-03-22T06:54:05.039Z,97705.22
2023-03-22T06:56:31.502Z,97706.94
2023-03-22T06:59:00.141Z,97707.59
2023-03-22T07:01:26.818Z,97713.47
2023-03-22T07:03:53.324Z,97714.28
2023-03-22T07:06:19.795Z,97712.84
2023-03-22T07:08:54.509Z,97708.66
2023-03-22T07:11:21.053Z,97714.28
2023-03-22T07:13:47.552Z,97704.41
2023-03-22T07:16:14.291Z,97700.59
2023-03-22T07:18:40.854Z,97700.22
2023-03-22T07:21:07.620Z,97693.28
2023-03-22T07:23:34.106Z,97688.25
2023-03-22T07:26:01.062Z,97692.94
2023-03-22T07:28:27.815Z,97692.94
2023-03-22T07:31:16.690Z,97696.16
2023-03-22T07:33:43.725Z,97691.59
2023-03-22T07:36:10.662Z,97695.09
2023-03-22T07:38:39.434Z,97694.31
2023-03-22T07:41:06.307Z,97690.78
2023-03-22T07:43:37.165Z,97695.16
2023-03-22T07:46:17.508Z,97692.22
2023-03-22T07:48:44.076Z,97690.31
2023-03-22T07:51:10.600Z,97692.59
2023-03-22T07:53:37.401Z,97696.38
2023-03-22T07:56:05.149Z,97698.56
2023-03-22T07:58:31.963Z,97702.66
2023-03-22T08:01:05.080Z,97697.47
2023-03-22T08:03:31.590Z,97701.94
2023-03-22T08:06:03.820Z,97703.50
2023-03-22T08:08:30.581Z,97709.94
2023-03-22T08:10:57.469Z,97708.59
2023-03-22T08:13:23.968Z,97701.94
2023-03-22T08:15:50.607Z,97697.91
2023-03-22T08:18:17.086Z,97695.31
2023-03-22T08:20:45.445Z,97695.06
2023-03-22T08:23:16.298Z,97682.97
2023-03-22T08:25:43.379Z,97683.13
2023-03-22T08:28:10.654Z,97680.69
2023-03-22T08:30:44.992Z,97674.94
2023-03-22T08:33:11.737Z,97676.53
2023-03-22T08:35:38.594Z,97679.38
2023-03-22T08:38:07.342Z,97681.91
2023-03-22T08:40:34.170Z,97678.38
2023-03-22T08:43:03.089Z,97678.59
2023-03-22T08:45:29.967Z,97682.50
2023-03-22T08:47:57.605Z,97679.03
2023-03-22T08:50:24.256Z,97681.94
2023-03-22T08:52:51.140Z,97678.84
2023-03-22T08:55:18.162Z,97672.03
2023-03-22T08:57:44.808Z,97675.94
2023-03-22T09:00:15.609Z,97665.00
2023-03-22T09:02:42.109Z,97665.41
2023-03-22T09:05:09.294Z,97666.56
2023-03-22T09:07:42.400Z,97670.84
2023-03-22T09:10:10.068Z,97668.19
2023-03-22T09:12:37.470Z,97669.28
2023-03-22T09:15:07.958Z,97660.47
2023-03-22T09:17:34.818Z,97663.19
2023-03-22T09:20:12.063Z,97657.53
2023-03-22T09:22:39.543Z,97657.00
2023-03-22T09:25:07.439Z,97660.31
2023-03-22T09:27:34.134Z,97667.84
2023-03-22T09:30:02.620Z,97664.78
2023-03-22T09:32:33.147Z,97663.69
2023-03-22T09:35:01.822Z,97658.47
2023-03-22T09:37:32.066Z,97654.22
2023-03-22T09:39:58.625Z,97643.63
2023-03-22T09:42:31.386Z,97644.00
2023-03-22T09:45:00.200Z,97636.38
2023-03-22T09:47:49.042Z,97635.59
2023-03-22T09:50:21.606Z,97630.38
2023-03-22T09:52:50.195Z,97624.50
2023-03-22T09:55:28.964Z,97618.75
2023-03-22T09:58:27.276Z,97612.31
2023-03-22T10:01:04.756Z,97610.03
2023-03-22T10:03:55.831Z,97604.09
2023-03-22T10:06:28.301Z,97596.84
2023-03-22T10:09:13.941Z,97596.16
2023-03-22T10:11:55.161Z,97592.41
2023-03-22T10:14:32.781Z,97595.16
2023-03-22T10:17:13.504Z,97593.00
2023-03-22T10:20:09.470Z,97590.16
2023-03-22T10:22:44.445Z,97584.44
2023-03-22T10:25:18.755Z,97583.56
2023-03-22T10:27:50.551Z,97573.72
2023-03-22T10:30:21.739Z,97572.06
2023-03-22T10:33:03.481Z,97563.75
2023-03-22T10:35:31.877Z,97559.94
2023-03-22T10:38:02.457Z,97562.84
2023-03-22T10:40:33.078Z,97562.97
2023-03-22T10:43:06.298Z,97568.56
2023-03-22T10:45:34.858Z,97557.41
2023-03-22T10:48:07.468Z,97563.31
2023-03-22T10:50:38.709Z,97563.78
2023-03-22T10:53:37.633Z,97555.63
2023-03-22T10:56:05.681Z,97555.06
2023-03-22T11:01:37.575Z,97543.69
2023-03-22T11:04:08.047Z,97538.47
2023-03-22T11:06:40.761Z,97539.22
2023-03-22T11:09:13.747Z,97542.63
2023-03-22T11:12:02.407Z,97538.09
2023-03-22T11:14:31.958Z,97523.53
2023-03-22T11:17:08.581Z,97533.72
2023-03-22T11:19:42.104Z,97527.00
2023-03-22T11:22:33.598Z,97519.91
2023-03-22T11:25:01.073Z,97519.28
2023-03-22T11:27:30.302Z,97512.28
2023-03-22T11:30:20.439Z,97512.94
2023-03-22T11:32:47.494Z,97523.06
2023-03-22T11:35:24.933Z,97506.13
2023-03-22T11:37:55.636Z,97509.16
2023-03-22T11:40:47.835Z,97507.00
2023-03-22T11:43:21.358Z,97495.81
2023-03-22T11:45:53.487Z,97486.03
2023-03-22T11:48:25.644Z,97486.38
2023-03-22T11:50:56.685Z,97488.34
2023-03-22T11:53:26.966Z,97485.75
2023-03-22T11:55:57.679Z,97483.88
2023-03-22T11:58:42.844Z,97475.28
2023-03-22T12:02:05.074Z,97459.69
2023-03-22T12:04:37.898Z,97461.69
2023-03-22T12:07:13.282Z,97462.28
2023-03-22T12:10:00.582Z,97458.78
2023-03-22T12:12:31.833Z,97457.69
2023-03-22T12:15:13.758Z,97456.78
2023-03-22T12:17:54.941Z,97453.28
2023-03-22T12:20:45.329Z,97454.81
2023-03-22T12:23:18.943Z,97455.59
2023-03-22T12:25:59.758Z,97449.13
2023-03-22T12:29:14.013Z,97443.03
2023-03-22T12:31:48.297Z,97434.00
2023-03-22T12:34:22.685Z,97448.53
2023-03-22T12:36:59.119Z,97436.91
2023-03-22T12:39:33.823Z,97440.13
2023-03-22T12:42:07.120Z,97436.91
2023-03-22T12:44:40.417Z,97443.03
2023-03-22T12:47:32.415Z,97441.50
2023-03-22T12:50:05.280Z,97442.41
2023-03-22T12:52:45.424Z,97430.16
2023-03-22T12:55:32.331Z,97442.22
2023-03-22T12:58:05.907Z,97440.84
2023-03-22T13:00:42.641Z,97434.56
2023-03-22T13:03:22.766Z,97431.50
2023-03-22T13:06:05.983Z,97433.72
2023-03-22T13:09:08.485Z,97432.72
2023-03-22T13:11:35.904Z,97421.75
2023-03-22T13:14:02.511Z,97418.06
2023-03-22T13:16:51.938Z,97423.06
2023-03-22T13:19:33.138Z,97417.28
2023-03-22T13:22:20.148Z,97420.47
2023-03-22T13:25:14.636Z,97416.53
2023-03-22T13:28:18.931Z,97401.97
2023-03-22T13:30:52.600Z,97407.34
2023-03-22T13:33:33.099Z,97411.31
2023-03-22T13:36:07.464Z,97411.06
2023-03-22T13:38:42.505Z,97401.09
2023-03-22T13:41:24.524Z,97408.66
2023-03-22T13:43:54.422Z,97402.84
2023-03-22T13:46:23.802Z,97397.34
2023-03-22T13:49:00.844Z,97393.50
2023-03-22T13:51:34.231Z,97395.41
2023-03-22T13:54:15.399Z,97380.59
2023-03-22T13:56:44.488Z,97383.84
2023-03-22T13:59:18.302Z,97382.88
2023-03-22T14:02:18.495Z,97381.38
2023-03-22T14:04:50.565Z,97380.66
2023-03-22T14:07:28.108Z,97377.53
2023-03-22T14:10:02.653Z,97356.38
2023-03-22T14:13:05.741Z,97365.06
2023-03-22T14:15:41.452Z,97358.66
2023-03-22T14:18:26.753Z,97353.19
2023-03-22T14:20:59.793Z,97360.63
